Time;durP1;ratioP1;P1;durP2;ratioP2;P2;SDS_P1;SDS_P2;PMS_P1;PMS_P2;Temp;Humidity;BMP_temperature;BMP_pressure;BME280_temperature;BME280_humidity;BME280_pressure;Samples;Min_cycle;Max_cycle;Signal;HPM_P1;HPM_P2
2023/01/23 00:00:13;;;;;;;7.03;1.95;;;;;;;;;;2098856;28;20167;-66
2023/01/23 00:01:15;;;;;;;4.85;2.08;;;;;;;;;;2103396;28;20406;-67
2023/01/23 00:02:15;;;;;;;3.85;1.90;;;;;;;;;;2107307;28;20481;-66
2023/01/23 00:03:15;;;;;;;5.05;2.00;;;;;;;;;;2107322;28;20031;-67
2023/01/23 00:04:15;;;;;;;7.43;2.17;;;;;;;;;;2107185;28;20020;-66
2023/01/23 00:05:16;;;;;;;3.55;2.00;;;;;;;;;;2107272;28;20028;-66
2023/01/23 00:06:16;;;;;;;5.18;2.28;;;;;;;;;;2107192;28;20031;-67
2023/01/23 00:07:17;;;;;;;6.70;2.40;;;;;;;;;;2106649;28;20024;-67
2023/01/23 00:08:20;;;;;;;4.20;1.95;;;;;;;;;;2106482;28;20121;-67
2023/01/23 00:09:20;;;;;;;5.55;1.98;;;;;;;;;;2106701;28;20504;-67
2023/01/23 00:10:20;;;;;;;8.95;2.85;;;;;;;;;;2107248;28;20077;-67
2023/01/23 00:11:21;;;;;;;5.10;2.00;;;;;;;;;;2105155;28;20371;-68
2023/01/23 00:12:21;;;;;;;4.10;1.98;;;;;;;;;;2100890;28;20490;-67
2023/01/23 00:13:22;;;;;;;5.43;2.03;;;;;;;;;;2102668;28;20024;-68
2023/01/23 00:14:22;;;;;;;3.00;2.10;;;;;;;;;;2102021;28;20463;-67
2023/01/23 00:15:22;;;;;;;7.28;2.53;;;;;;;;;;2103873;28;20024;-66
2023/01/23 00:16:24;;;;;;;4.80;2.65;;;;;;;;;;2107242;28;20020;-66
2023/01/23 00:17:26;;;;;;;6.57;2.40;;;;;;;;;;2107088;28;20058;-66
2023/01/23 00:18:26;;;;;;;3.95;2.20;;;;;;;;;;2107192;28;20056;-66
2023/01/23 00:19:26;;;;;;;6.57;2.60;;;;;;;;;;2107067;28;20061;-66
2023/01/23 00:20:26;;;;;;;7.55;2.50;;;;;;;;;;2107177;28;20462;-66
2023/01/23 00:21:27;;;;;;;4.82;2.30;;;;;;;;;;2106946;28;20028;-68
2023/01/23 00:22:27;;;;;;;6.55;2.55;;;;;;;;;;2107287;28;20085;-68
2023/01/23 00:23:28;;;;;;;3.97;2.38;;;;;;;;;;2106985;28;20433;-67
2023/01/23 00:24:28;;;;;;;4.28;2.40;;;;;;;;;;2107174;28;20024;-67
2023/01/23 00:25:28;;;;;;;3.95;2.20;;;;;;;;;;2107078;28;20028;-67
2023/01/23 00:26:29;;;;;;;9.55;2.53;;;;;;;;;;2106905;28;20059;-68
2023/01/23 00:27:29;;;;;;;7.57;2.67;;;;;;;;;;2106382;28;20032;-68
2023/01/23 00:28:29;;;;;;;5.35;2.40;;;;;;;;;;2106580;28;20030;-68
2023/01/23 00:29:29;;;;;;;5.15;2.38;;;;;;;;;;2106497;28;20051;-67
2023/01/23 00:30:30;;;;;;;6.43;2.17;;;;;;;;;;2099222;28;20459;-69
2023/01/23 00:31:31;;;;;;;3.70;2.33;;;;;;;;;;2098719;28;20021;-67
2023/01/23 00:32:31;;;;;;;7.07;2.47;;;;;;;;;;2098938;28;20043;-68
2023/01/23 00:33:32;;;;;;;5.78;2.70;;;;;;;;;;2098743;28;20028;-68
2023/01/23 00:34:32;;;;;;;4.20;2.40;;;;;;;;;;2098817;28;20050;-69
2023/01/23 00:35:35;;;;;;;6.28;2.40;;;;;;;;;;2098683;28;20021;-68
2023/01/23 00:36:37;;;;;;;4.32;2.58;;;;;;;;;;2098802;28;20036;-67
2023/01/23 00:37:37;;;;;;;4.78;2.50;;;;;;;;;;2098631;28;20031;-67
2023/01/23 00:38:37;;;;;;;7.30;3.10;;;;;;;;;;2098678;28;20027;-67
2023/01/23 00:39:37;;;;;;;3.35;2.33;;;;;;;;;;2097858;28;20029;-67
2023/01/23 00:40:37;;;;;;;5.28;2.53;;;;;;;;;;2104014;28;20073;-67
2023/01/23 00:41:38;;;;;;;5.32;2.42;;;;;;;;;;2105513;28;20024;-67
2023/01/23 00:42:38;;;;;;;3.60;2.15;;;;;;;;;;2107087;28;20348;-67
2023/01/23 00:43:38;;;;;;;4.10;2.30;;;;;;;;;;2104622;28;20024;-67
2023/01/23 00:44:38;;;;;;;13.77;2.55;;;;;;;;;;2104785;28;20024;-67
2023/01/23 00:45:38;;;;;;;3.28;2.10;;;;;;;;;;2098625;28;20033;-67
2023/01/23 00:46:39;;;;;;;8.20;2.70;;;;;;;;;;2098673;28;20410;-67
2023/01/23 00:47:39;;;;;;;6.43;2.50;;;;;;;;;;2098666;28;20045;-67
2023/01/23 00:48:39;;;;;;;7.25;2.45;;;;;;;;;;2098091;28;20049;-67
2023/01/23 00:49:39;;;;;;;7.32;2.72;;;;;;;;;;2104271;28;20153;-67
2023/01/23 00:50:39;;;;;;;5.82;2.80;;;;;;;;;;2106875;28;20024;-67
2023/01/23 00:51:39;;;;;;;5.93;2.17;;;;;;;;;;2107008;28;20020;-66
2023/01/23 00:52:40;;;;;;;5.20;2.67;;;;;;;;;;2100148;28;20433;-66
2023/01/23 00:53:40;;;;;;;3.05;2.22;;;;;;;;;;2107163;28;20085;-66
2023/01/23 00:54:40;;;;;;;3.92;2.42;;;;;;;;;;2106998;28;20470;-67
2023/01/23 00:55:41;;;;;;;4.38;2.38;;;;;;;;;;2101735;28;20387;-67
2023/01/23 00:56:41;;;;;;;15.27;3.00;;;;;;;;;;2098536;28;20029;-67
2023/01/23 00:57:41;;;;;;;5.68;2.45;;;;;;;;;;2098828;28;20032;-67
2023/01/23 00:58:41;;;;;;;3.85;2.42;;;;;;;;;;2099624;28;20031;-67
2023/01/23 00:59:42;;;;;;;7.57;2.70;;;;;;;;;;2099070;28;20024;-67
2023/01/23 01:00:42;;;;;;;4.45;2.90;;;;;;;;;;2098668;28;20052;-67
2023/01/23 01:01:42;;;;;;;7.30;2.47;;;;;;;;;;2098672;28;20035;-67
2023/01/23 01:02:42;;;;;;;7.43;2.28;;;;;;;;;;2098073;28;20069;-67
2023/01/23 01:03:43;;;;;;;3.63;2.50;;;;;;;;;;2098782;28;20367;-67
2023/01/23 01:04:43;;;;;;;4.35;2.50;;;;;;;;;;2098609;28;20030;-67
2023/01/23 01:05:43;;;;;;;5.28;2.50;;;;;;;;;;2100422;28;20032;-67
2023/01/23 01:06:43;;;;;;;3.15;2.30;;;;;;;;;;2098580;28;20020;-68
2023/01/23 01:07:44;;;;;;;10.45;2.75;;;;;;;;;;2098589;28;20388;-67
2023/01/23 01:08:44;;;;;;;5.18;2.80;;;;;;;;;;2098643;28;20093;-67
2023/01/23 01:09:44;;;;;;;4.63;2.90;;;;;;;;;;2099580;28;20036;-67
2023/01/23 01:10:44;;;;;;;8.20;3.17;;;;;;;;;;2100150;28;20035;-66
2023/01/23 01:11:44;;;;;;;6.25;2.60;;;;;;;;;;2100243;28;20034;-66
2023/01/23 01:12:45;;;;;;;4.82;2.38;;;;;;;;;;2099611;28;20021;-65
2023/01/23 01:13:46;;;;;;;4.22;2.55;;;;;;;;;;2100252;28;20025;-65
2023/01/23 01:14:46;;;;;;;2.78;2.28;;;;;;;;;;2100157;28;20558;-66
2023/01/23 01:15:50;;;;;;;5.05;2.63;;;;;;;;;;2100272;28;20059;-64
2023/01/23 01:16:50;;;;;;;4.85;2.70;;;;;;;;;;2099479;28;20025;-64
2023/01/23 01:17:53;;;;;;;8.57;2.88;;;;;;;;;;2100027;28;20048;-65
2023/01/23 01:18:53;;;;;;;4.68;2.80;;;;;;;;;;2100197;28;20095;-64
2023/01/23 01:19:53;;;;;;;2.85;2.40;;;;;;;;;;2100016;28;20024;-64
2023/01/23 01:20:54;;;;;;;6.00;2.65;;;;;;;;;;2106546;28;20123;-64
2023/01/23 01:21:54;;;;;;;5.93;2.38;;;;;;;;;;2108492;28;20022;-64
2023/01/23 01:22:56;;;;;;;4.93;2.70;;;;;;;;;;2108565;28;20027;-64
2023/01/23 01:23:56;;;;;;;6.35;2.58;;;;;;;;;;2105293;28;20256;-64
2023/01/23 01:24:56;;;;;;;7.28;2.60;;;;;;;;;;2100117;28;20108;-64
2023/01/23 01:25:59;;;;;;;5.28;2.45;;;;;;;;;;2099763;28;20112;-63
2023/01/23 01:26:59;;;;;;;8.63;2.60;;;;;;;;;;2100037;28;20020;-64
2023/01/23 01:28:00;;;;;;;4.85;2.60;;;;;;;;;;2099234;28;20437;-64
2023/01/23 01:29:00;;;;;;;7.35;2.38;;;;;;;;;;2108529;28;20008;-64
2023/01/23 01:30:00;;;;;;;5.65;2.92;;;;;;;;;;2108366;28;20040;-64
2023/01/23 01:31:06;;;;;;;5.55;2.70;;;;;;;;;;2108276;28;20023;-64
2023/01/23 01:32:06;;;;;;;4.18;2.85;;;;;;;;;;2100013;28;20016;-64
2023/01/23 01:33:06;;;;;;;4.18;2.47;;;;;;;;;;2100030;28;20489;-66
2023/01/23 01:34:06;;;;;;;4.60;2.33;;;;;;;;;;2099950;28;20028;-65
2023/01/23 01:35:07;;;;;;;8.88;2.55;;;;;;;;;;2099556;28;20020;-66
2023/01/23 01:36:09;;;;;;;8.50;2.75;;;;;;;;;;2099967;28;20123;-65
2023/01/23 01:37:09;;;;;;;6.38;2.45;;;;;;;;;;2100104;28;20364;-65
2023/01/23 01:38:09;;;;;;;7.45;3.15;;;;;;;;;;2099791;28;20023;-65
2023/01/23 01:39:09;;;;;;;8.65;2.78;;;;;;;;;;2105438;28;20447;-65
2023/01/23 01:40:14;;;;;;;2.47;2.28;;;;;;;;;;2108414;28;20023;-65
2023/01/23 01:41:15;;;;;;;8.70;2.55;;;;;;;;;;2108383;28;20024;-65
2023/01/23 01:42:15;;;;;;;5.55;2.28;;;;;;;;;;2104347;28;20016;-65
2023/01/23 01:43:20;;;;;;;4.80;2.30;;;;;;;;;;2099995;28;20416;-65
2023/01/23 01:44:21;;;;;;;5.22;2.35;;;;;;;;;;2099882;28;20340;-65
2023/01/23 01:45:40;;;;;;;8.07;3.10;;;;;;;;;;2100145;28;20108;-65
2023/01/23 01:46:40;;;;;;;4.75;2.30;;;;;;;;;;2099708;28;20112;-65
2023/01/23 01:47:40;;;;;;;6.15;2.45;;;;;;;;;;2099960;28;20024;-65
2023/01/23 01:48:49;;;;;;;5.28;2.40;;;;;;;;;;2099788;28;20024;-65
2023/01/23 01:49:51;;;;;;;5.72;2.97;;;;;;;;;;2105630;28;20051;-65
2023/01/23 01:50:52;;;;;;;3.90;2.50;;;;;;;;;;2106670;28;20069;-64
2023/01/23 01:51:55;;;;;;;6.50;2.65;;;;;;;;;;2107637;28;20449;-64
2023/01/23 01:52:55;;;;;;;6.43;2.83;;;;;;;;;;2106556;28;20032;-65
2023/01/23 01:54:01;;;;;;;7.90;2.97;;;;;;;;;;2099852;28;20013;-64
2023/01/23 01:55:03;;;;;;;2.40;2.20;;;;;;;;;;2099786;28;20012;-65
2023/01/23 01:56:03;;;;;;;6.65;2.60;;;;;;;;;;2099815;28;20021;-64
2023/01/23 01:57:06;;;;;;;3.70;2.35;;;;;;;;;;2099270;28;20028;-64
2023/01/23 01:58:07;;;;;;;2.33;2.10;;;;;;;;;;2100008;28;20012;-65
2023/01/23 01:59:08;;;;;;;3.30;2.30;;;;;;;;;;2099701;28;20447;-65
2023/01/23 02:00:14;;;;;;;4.53;2.47;;;;;;;;;;2099947;28;20012;-65
2023/01/23 02:01:15;;;;;;;2.65;2.45;;;;;;;;;;2099392;28;20024;-65
2023/01/23 02:02:17;;;;;;;7.10;2.40;;;;;;;;;;2100024;28;20028;-65
2023/01/23 02:03:18;;;;;;;4.90;2.45;;;;;;;;;;2099661;28;20032;-65
2023/01/23 02:04:18;;;;;;;4.57;2.65;;;;;;;;;;2099321;28;20027;-65
2023/01/23 02:05:21;;;;;;;7.63;2.72;;;;;;;;;;2099714;28;20349;-65
2023/01/23 02:06:21;;;;;;;3.83;2.50;;;;;;;;;;2099932;28;20476;-65
2023/01/23 02:07:25;;;;;;;5.68;2.83;;;;;;;;;;2099671;28;20111;-65
2023/01/23 02:08:27;;;;;;;6.75;2.60;;;;;;;;;;2099283;28;20032;-65
2023/01/23 02:09:27;;;;;;;4.15;2.42;;;;;;;;;;2099631;28;20021;-65
2023/01/23 02:10:28;;;;;;;4.07;2.17;;;;;;;;;;2099882;28;20333;-65
2023/01/23 02:11:28;;;;;;;3.28;2.38;;;;;;;;;;2099228;28;20395;-66
2023/01/23 02:12:29;;;;;;;4.55;2.72;;;;;;;;;;2099746;28;20078;-66
2023/01/23 02:13:37;;;;;;;5.38;2.65;;;;;;;;;;2099640;28;20021;-66
2023/01/23 02:14:37;;;;;;;8.95;2.83;;;;;;;;;;2108288;28;20439;-66
2023/01/23 02:15:38;;;;;;;5.90;2.72;;;;;;;;;;2102068;28;20028;-66
2023/01/23 02:16:41;;;;;;;3.92;2.47;;;;;;;;;;2099605;28;20043;-66
2023/01/23 02:17:42;;;;;;;4.35;2.40;;;;;;;;;;2099689;28;20039;-66
2023/01/23 02:18:46;;;;;;;5.03;2.67;;;;;;;;;;2099194;28;20380;-65
2023/01/23 02:20:04;;;;;;;6.25;2.65;;;;;;;;;;2099345;28;20023;-65
2023/01/23 02:21:06;;;;;;;5.55;2.35;;;;;;;;;;2099776;28;20024;-66
2023/01/23 02:22:09;;;;;;;4.53;2.55;;;;;;;;;;2099624;28;20013;-65
2023/01/23 02:23:19;;;;;;;4.18;2.78;;;;;;;;;;2105027;28;20017;-65
2023/01/23 02:24:25;;;;;;;6.07;2.88;;;;;;;;;;2107982;28;20478;-65
2023/01/23 02:25:40;;;;;;;4.05;2.45;;;;;;;;;;2107977;28;20036;-65
2023/01/23 02:26:42;;;;;;;9.13;2.83;;;;;;;;;;2101759;28;20049;-65
2023/01/23 02:27:42;;;;;;;3.15;2.42;;;;;;;;;;2099442;28;20070;-65
2023/01/23 02:28:45;;;;;;;7.22;3.13;;;;;;;;;;2099650;28;20025;-65
2023/01/23 02:29:47;;;;;;;6.40;2.65;;;;;;;;;;2099191;28;20103;-65
2023/01/23 02:30:49;;;;;;;9.48;2.25;;;;;;;;;;2099624;28;20021;-63
2023/01/23 02:31:51;;;;;;;6.72;2.88;;;;;;;;;;2099583;28;20023;-64
2023/01/23 02:32:51;;;;;;;3.50;3.00;;;;;;;;;;2099647;28;20013;-63
2023/01/23 02:33:53;;;;;;;4.55;2.72;;;;;;;;;;2099138;28;20470;-64
2023/01/23 02:34:56;;;;;;;4.63;2.40;;;;;;;;;;2099523;28;20016;-63
2023/01/23 02:35:59;;;;;;;4.28;2.65;;;;;;;;;;2099588;28;20021;-64
2023/01/23 02:37:00;;;;;;;4.43;2.60;;;;;;;;;;2106206;28;20134;-63
2023/01/23 02:38:03;;;;;;;4.03;2.80;;;;;;;;;;2107942;28;20020;-64
2023/01/23 02:39:08;;;;;;;6.18;2.80;;;;;;;;;;2107785;28;20100;-64
2023/01/23 02:40:08;;;;;;;6.30;3.15;;;;;;;;;;2103780;28;20032;-64
2023/01/23 02:41:09;;;;;;;6.35;2.85;;;;;;;;;;2098949;28;20406;-64
2023/01/23 02:42:10;;;;;;;5.90;2.70;;;;;;;;;;2099518;28;20423;-64
2023/01/23 02:43:13;;;;;;;3.25;2.25;;;;;;;;;;2099437;28;20024;-64
2023/01/23 02:44:27;;;;;;;4.68;2.72;;;;;;;;;;2099247;28;20463;-64
2023/01/23 02:45:27;;;;;;;6.72;3.20;;;;;;;;;;2099509;28;20371;-64
2023/01/23 02:46:27;;;;;;;5.70;2.90;;;;;;;;;;2099419;28;20029;-64
2023/01/23 02:47:28;;;;;;;4.75;2.47;;;;;;;;;;2098848;28;20525;-64
2023/01/23 02:48:28;;;;;;;5.97;2.65;;;;;;;;;;2099446;28;20463;-63
2023/01/23 02:49:29;;;;;;;7.97;3.03;;;;;;;;;;2103531;28;20020;-63
2023/01/23 02:50:29;;;;;;;6.90;2.70;;;;;;;;;;2101939;28;20024;-64
2023/01/23 02:51:30;;;;;;;4.30;2.58;;;;;;;;;;2099389;28;20051;-64
2023/01/23 02:52:30;;;;;;;3.35;2.58;;;;;;;;;;2099447;28;20479;-64
2023/01/23 02:53:31;;;;;;;4.20;2.60;;;;;;;;;;2098771;28;20021;-64
2023/01/23 02:54:31;;;;;;;3.55;2.30;;;;;;;;;;2098828;28;20059;-64
2023/01/23 02:55:32;;;;;;;3.67;2.97;;;;;;;;;;2098731;28;20028;-64
2023/01/23 02:56:32;;;;;;;6.93;2.75;;;;;;;;;;2099422;28;20035;-64
2023/01/23 02:57:33;;;;;;;4.72;2.45;;;;;;;;;;2098752;28;20023;-64
2023/01/23 03:01:11;;;;;;;5.20;2.75;;;;;;;;;;2105312;28;20040;-64
2023/01/23 03:02:13;;;;;;;7.82;2.58;;;;;;;;;;2101481;28;20048;-64
2023/01/23 03:03:14;;;;;;;3.85;2.25;;;;;;;;;;2099718;28;20040;-64
2023/01/23 03:04:14;;;;;;;4.72;2.35;;;;;;;;;;2099216;28;20026;-64
2023/01/23 03:05:18;;;;;;;7.38;2.40;;;;;;;;;;2099257;28;20025;-65
2023/01/23 03:06:19;;;;;;;4.93;2.35;;;;;;;;;;2103914;28;20016;-65
2023/01/23 03:07:20;;;;;;;4.65;2.55;;;;;;;;;;2104706;28;20031;-65
2023/01/23 03:08:20;;;;;;;6.68;2.88;;;;;;;;;;2099243;28;20027;-65
2023/01/23 03:09:21;;;;;;;4.25;2.60;;;;;;;;;;2099287;28;20052;-65
2023/01/23 03:10:21;;;;;;;6.57;3.05;;;;;;;;;;2099347;28;20058;-65
2023/01/23 03:11:22;;;;;;;5.57;3.28;;;;;;;;;;2098827;28;20039;-65
2023/01/23 03:12:22;;;;;;;5.85;2.80;;;;;;;;;;2099043;28;20035;-65
2023/01/23 03:13:22;;;;;;;4.43;2.60;;;;;;;;;;2099275;28;20460;-65
2023/01/23 03:14:23;;;;;;;4.13;2.45;;;;;;;;;;2099172;28;20426;-65
2023/01/23 03:15:23;;;;;;;6.15;2.78;;;;;;;;;;2105861;28;20055;-65
2023/01/23 03:16:23;;;;;;;8.38;2.97;;;;;;;;;;2107578;28;20032;-65
2023/01/23 03:17:23;;;;;;;7.40;2.63;;;;;;;;;;2107625;28;20379;-65
2023/01/23 03:18:26;;;;;;;5.20;3.10;;;;;;;;;;2104575;28;20020;-65
2023/01/23 03:19:26;;;;;;;3.25;2.33;;;;;;;;;;2099235;28;20089;-65
2023/01/23 03:20:27;;;;;;;6.75;2.45;;;;;;;;;;2098403;28;20020;-65
2023/01/23 03:21:27;;;;;;;5.90;2.63;;;;;;;;;;2098390;28;20020;-65
2023/01/23 03:22:27;;;;;;;5.28;2.58;;;;;;;;;;2099052;28;20455;-65
2023/01/23 03:23:28;;;;;;;3.88;2.40;;;;;;;;;;2099287;28;20456;-65
2023/01/23 03:24:28;;;;;;;6.80;2.70;;;;;;;;;;2099110;28;20054;-65
2023/01/23 03:25:28;;;;;;;3.65;2.50;;;;;;;;;;2098777;28;20028;-65
2023/01/23 03:26:28;;;;;;;5.35;2.58;;;;;;;;;;2098841;28;20061;-65
2023/01/23 03:27:28;;;;;;;3.70;2.33;;;;;;;;;;2099079;28;20375;-64
2023/01/23 03:31:06;;;;;;;3.38;2.63;;;;;;;;;;2099075;28;20020;-65
2023/01/23 03:32:07;;;;;;;3.05;2.40;;;;;;;;;;2097839;28;20009;-65
2023/01/23 03:33:07;;;;;;;4.13;2.72;;;;;;;;;;2098977;28;20349;-65
2023/01/23 03:34:07;;;;;;;5.70;2.72;;;;;;;;;;2099241;28;20028;-64
2023/01/23 03:35:15;;;;;;;7.53;2.63;;;;;;;;;;2098999;28;20440;-65
2023/01/23 03:36:15;;;;;;;4.47;2.55;;;;;;;;;;2098671;28;20460;-65
2023/01/23 03:37:16;;;;;;;3.85;2.67;;;;;;;;;;2098887;28;20025;-64
2023/01/23 03:38:18;;;;;;;3.67;2.88;;;;;;;;;;2099004;28;20024;-65
2023/01/23 03:41:55;;;;;;;7.93;2.47;;;;;;;;;;2099111;28;20020;-65
2023/01/23 03:42:55;;;;;;;3.97;2.83;;;;;;;;;;2098918;28;20017;-65
2023/01/23 03:43:56;;;;;;;3.50;2.60;;;;;;;;;;2098375;28;20140;-65
2023/01/23 03:44:56;;;;;;;3.65;2.72;;;;;;;;;;2107154;28;20012;-65
2023/01/23 03:45:56;;;;;;;3.97;2.58;;;;;;;;;;2107410;28;20035;-65
2023/01/23 03:46:56;;;;;;;6.60;2.70;;;;;;;;;;2104106;28;20020;-65
2023/01/23 03:47:57;;;;;;;2.80;2.60;;;;;;;;;;2099132;28;20024;-65
2023/01/23 03:48:57;;;;;;;5.80;3.10;;;;;;;;;;2098831;28;20108;-65
2023/01/23 03:49:57;;;;;;;4.22;2.70;;;;;;;;;;2107220;28;20065;-65
2023/01/23 03:50:57;;;;;;;5.05;2.97;;;;;;;;;;2105260;28;20059;-65
2023/01/23 03:51:58;;;;;;;4.50;2.70;;;;;;;;;;2107178;28;20099;-65
2023/01/23 03:52:58;;;;;;;5.95;3.00;;;;;;;;;;2107353;28;20019;-65
2023/01/23 03:53:58;;;;;;;4.53;3.10;;;;;;;;;;2107191;28;20031;-65
2023/01/23 03:54:58;;;;;;;8.25;2.80;;;;;;;;;;2098545;28;20025;-65
2023/01/23 03:55:58;;;;;;;5.90;2.97;;;;;;;;;;2098142;28;20540;-65
2023/01/23 03:56:58;;;;;;;5.35;2.92;;;;;;;;;;2098385;28;20024;-65
2023/01/23 03:57:58;;;;;;;7.10;2.63;;;;;;;;;;2098214;28;20375;-65
2023/01/23 03:58:59;;;;;;;6.93;3.17;;;;;;;;;;2098981;28;20021;-65
2023/01/23 03:59:59;;;;;;;7.07;2.88;;;;;;;;;;2098833;28;20021;-65
2023/01/23 04:01:02;;;;;;;3.05;2.75;;;;;;;;;;2098940;28;20013;-65
2023/01/23 04:02:03;;;;;;;3.38;3.08;;;;;;;;;;2103193;28;20051;-65
2023/01/23 04:03:04;;;;;;;5.63;2.95;;;;;;;;;;2106856;28;20012;-65
2023/01/23 04:04:04;;;;;;;4.50;2.90;;;;;;;;;;2106574;28;20034;-65
2023/01/23 04:05:04;;;;;;;5.35;2.83;;;;;;;;;;2105327;28;20051;-65
2023/01/23 04:06:04;;;;;;;4.18;2.63;;;;;;;;;;2098103;28;20094;-65
2023/01/23 04:07:05;;;;;;;5.22;3.00;;;;;;;;;;2097723;28;20040;-65
2023/01/23 04:08:05;;;;;;;5.13;2.95;;;;;;;;;;2098769;28;20035;-64
2023/01/23 04:09:05;;;;;;;6.10;2.95;;;;;;;;;;2098346;28;20032;-64
2023/01/23 04:10:05;;;;;;;6.43;3.05;;;;;;;;;;2098774;28;20020;-64
2023/01/23 04:11:07;;;;;;;4.32;3.00;;;;;;;;;;2098879;28;20416;-64
2023/01/23 04:12:07;;;;;;;6.38;2.90;;;;;;;;;;2098861;28;20398;-64
2023/01/23 04:13:07;;;;;;;6.35;3.28;;;;;;;;;;2098424;28;20021;-64
2023/01/23 04:14:07;;;;;;;6.25;2.80;;;;;;;;;;2098850;28;20462;-64
2023/01/23 04:15:07;;;;;;;5.05;2.97;;;;;;;;;;2098859;28;20379;-64
2023/01/23 04:16:08;;;;;;;6.35;2.97;;;;;;;;;;2098135;28;20050;-64
2023/01/23 04:17:08;;;;;;;3.20;2.75;;;;;;;;;;2098870;28;20031;-64
2023/01/23 04:18:08;;;;;;;8.55;2.80;;;;;;;;;;2098754;28;20021;-64
2023/01/23 04:19:08;;;;;;;5.97;2.88;;;;;;;;;;2098960;28;20020;-64
2023/01/23 04:20:09;;;;;;;8.25;3.35;;;;;;;;;;2098369;28;20027;-64
2023/01/23 04:21:10;;;;;;;5.80;2.90;;;;;;;;;;2098520;28;20047;-64
2023/01/23 04:22:10;;;;;;;4.47;2.63;;;;;;;;;;2099036;28;20047;-64
2023/01/23 04:23:10;;;;;;;4.07;2.53;;;;;;;;;;2098595;28;20027;-64
2023/01/23 04:24:10;;;;;;;4.88;3.00;;;;;;;;;;2104567;28;20101;-64
2023/01/23 04:25:10;;;;;;;4.93;2.78;;;;;;;;;;2107109;28;20028;-64
2023/01/23 04:26:11;;;;;;;4.15;2.63;;;;;;;;;;2106876;28;20036;-63
2023/01/23 04:27:11;;;;;;;3.55;2.38;;;;;;;;;;2104712;28;20036;-64
2023/01/23 04:28:11;;;;;;;8.38;3.17;;;;;;;;;;2098936;28;20111;-63
2023/01/23 04:29:12;;;;;;;4.95;3.10;;;;;;;;;;2098346;28;20016;-64
2023/01/23 04:30:12;;;;;;;4.68;2.83;;;;;;;;;;2107047;28;20027;-64
2023/01/23 04:31:12;;;;;;;5.35;2.88;;;;;;;;;;2101873;28;20020;-64
2023/01/23 04:32:12;;;;;;;5.97;3.20;;;;;;;;;;2098813;28;20025;-64
2023/01/23 04:33:13;;;;;;;7.00;2.63;;;;;;;;;;2098721;28;20492;-64
2023/01/23 04:34:13;;;;;;;3.97;2.80;;;;;;;;;;2098807;28;20048;-64
2023/01/23 04:35:13;;;;;;;5.30;3.03;;;;;;;;;;2098171;28;20029;-64
2023/01/23 04:36:13;;;;;;;3.22;2.22;;;;;;;;;;2098862;28;20020;-65
2023/01/23 04:37:13;;;;;;;3.58;2.75;;;;;;;;;;2098670;28;20017;-65
2023/01/23 04:38:13;;;;;;;4.55;2.40;;;;;;;;;;2098271;28;20100;-65
2023/01/23 04:39:13;;;;;;;6.03;3.03;;;;;;;;;;2098708;28;20471;-65
2023/01/23 04:40:14;;;;;;;7.22;3.10;;;;;;;;;;2098839;28;20071;-65
2023/01/23 04:41:17;;;;;;;4.90;2.83;;;;;;;;;;2098248;28;20024;-65
2023/01/23 04:42:18;;;;;;;5.03;3.22;;;;;;;;;;2098769;28;20029;-65
2023/01/23 04:43:18;;;;;;;5.43;2.65;;;;;;;;;;2099558;28;20485;-65
2023/01/23 04:44:21;;;;;;;5.80;3.10;;;;;;;;;;2100421;28;20024;-65
2023/01/23 04:45:21;;;;;;;3.97;2.85;;;;;;;;;;2099926;28;20023;-65
2023/01/23 04:46:21;;;;;;;6.15;3.15;;;;;;;;;;2100472;28;20095;-65
2023/01/23 04:47:22;;;;;;;5.18;2.75;;;;;;;;;;2100298;28;20029;-65
2023/01/23 04:48:22;;;;;;;7.03;3.30;;;;;;;;;;2099996;28;20432;-65
2023/01/23 04:49:23;;;;;;;3.22;2.72;;;;;;;;;;2103842;28;20107;-65
2023/01/23 04:50:23;;;;;;;4.88;2.78;;;;;;;;;;2108777;28;20135;-65
2023/01/23 04:51:24;;;;;;;6.32;3.10;;;;;;;;;;2108756;28;20587;-65
2023/01/23 04:52:24;;;;;;;7.18;3.13;;;;;;;;;;2103000;28;20027;-65
2023/01/23 04:53:24;;;;;;;7.53;3.28;;;;;;;;;;2100305;28;20039;-65
2023/01/23 04:54:24;;;;;;;5.57;3.53;;;;;;;;;;2100321;28;20086;-65
2023/01/23 04:55:24;;;;;;;4.35;2.90;;;;;;;;;;2100351;28;20424;-65
2023/01/23 04:56:25;;;;;;;3.85;2.58;;;;;;;;;;2099942;28;20379;-65
2023/01/23 04:57:25;;;;;;;5.45;2.55;;;;;;;;;;2099913;28;20062;-65
2023/01/23 04:58:25;;;;;;;3.83;2.60;;;;;;;;;;2099612;28;20107;-65
2023/01/23 04:59:25;;;;;;;4.53;3.13;;;;;;;;;;2099798;28;20027;-65
2023/01/23 05:00:27;;;;;;;6.93;3.03;;;;;;;;;;2100281;28;20027;-65
2023/01/23 05:01:28;;;;;;;6.22;3.20;;;;;;;;;;2100422;28;20009;-65
2023/01/23 05:02:28;;;;;;;4.93;3.10;;;;;;;;;;2099666;28;20970;-65
2023/01/23 05:03:28;;;;;;;4.15;2.75;;;;;;;;;;2100292;28;20032;-65
2023/01/23 05:04:28;;;;;;;7.68;3.20;;;;;;;;;;2100148;28;20024;-65
2023/01/23 05:05:28;;;;;;;5.07;3.13;;;;;;;;;;2100398;28;20086;-65
2023/01/23 05:06:28;;;;;;;3.60;3.13;;;;;;;;;;2099737;28;20019;-65
2023/01/23 05:07:29;;;;;;;4.65;2.78;;;;;;;;;;2100197;28;20036;-65
2023/01/23 05:08:29;;;;;;;6.82;3.40;;;;;;;;;;2099663;28;20052;-64
2023/01/23 05:09:29;;;;;;;6.25;3.88;;;;;;;;;;2099904;28;20056;-65
2023/01/23 05:10:29;;;;;;;5.70;3.10;;;;;;;;;;2100124;28;20131;-65
2023/01/23 05:11:29;;;;;;;10.95;3.13;;;;;;;;;;2100257;28;20158;-65
2023/01/23 05:12:30;;;;;;;5.13;2.90;;;;;;;;;;2100109;28;20017;-65
2023/01/23 05:13:30;;;;;;;4.80;3.00;;;;;;;;;;2099364;28;20024;-65
2023/01/23 05:14:30;;;;;;;5.43;3.30;;;;;;;;;;2099724;28;20074;-65
2023/01/23 05:15:30;;;;;;;5.65;3.33;;;;;;;;;;2100330;28;20083;-65
2023/01/23 05:16:31;;;;;;;5.40;3.70;;;;;;;;;;2100102;28;20103;-65
2023/01/23 05:17:31;;;;;;;4.38;3.47;;;;;;;;;;2104454;28;20043;-65
2023/01/23 05:18:31;;;;;;;7.55;3.28;;;;;;;;;;2107952;28;20039;-65
2023/01/23 05:19:31;;;;;;;4.20;3.17;;;;;;;;;;2108439;28;20447;-65
2023/01/23 05:20:31;;;;;;;11.10;3.65;;;;;;;;;;2107537;28;20016;-65
2023/01/23 05:21:31;;;;;;;7.93;3.45;;;;;;;;;;2099917;28;20027;-65
2023/01/23 05:22:32;;;;;;;5.88;3.63;;;;;;;;;;2100183;28;20048;-64
2023/01/23 05:23:32;;;;;;;5.13;3.17;;;;;;;;;;2099968;28;20016;-64
2023/01/23 05:24:32;;;;;;;6.68;3.45;;;;;;;;;;2101571;28;20024;-65
2023/01/23 05:25:33;;;;;;;6.53;3.50;;;;;;;;;;2107826;28;20020;-65
2023/01/23 05:26:34;;;;;;;3.55;3.25;;;;;;;;;;2108243;28;20045;-65
2023/01/23 05:27:34;;;;;;;4.95;3.50;;;;;;;;;;2108286;28;20081;-65
2023/01/23 05:28:34;;;;;;;4.43;3.22;;;;;;;;;;2101557;28;20529;-65
2023/01/23 05:29:34;;;;;;;9.75;3.70;;;;;;;;;;2099963;28;20074;-65
2023/01/23 05:30:34;;;;;;;5.25;3.38;;;;;;;;;;2100100;28;20025;-64
2023/01/23 05:31:34;;;;;;;6.82;3.42;;;;;;;;;;2099445;28;20029;-65
2023/01/23 05:32:34;;;;;;;5.88;3.60;;;;;;;;;;2100079;28;20043;-64
2023/01/23 05:33:35;;;;;;;6.57;3.83;;;;;;;;;;2100047;28;20372;-64
2023/01/23 05:34:35;;;;;;;7.18;3.53;;;;;;;;;;2100048;28;20090;-65
2023/01/23 05:35:37;;;;;;;4.20;3.67;;;;;;;;;;2099460;28;20463;-65
2023/01/23 05:36:37;;;;;;;5.95;3.72;;;;;;;;;;2099533;28;20016;-65
2023/01/23 05:37:37;;;;;;;5.43;3.85;;;;;;;;;;2107764;28;20036;-65
2023/01/23 05:38:37;;;;;;;6.47;3.33;;;;;;;;;;2108454;28;20016;-65
2023/01/23 05:39:38;;;;;;;6.57;3.92;;;;;;;;;;2100791;28;20020;-65
2023/01/23 05:40:38;;;;;;;6.68;3.92;;;;;;;;;;2100049;28;20024;-65
2023/01/23 05:41:38;;;;;;;5.85;3.80;;;;;;;;;;2099958;28;20056;-64
2023/01/23 05:42:38;;;;;;;7.43;3.90;;;;;;;;;;2099564;28;20451;-65
2023/01/23 05:43:38;;;;;;;5.93;4.00;;;;;;;;;;2100010;28;20025;-65
2023/01/23 05:44:38;;;;;;;9.45;4.05;;;;;;;;;;2100010;28;20074;-64
2023/01/23 05:45:38;;;;;;;5.75;4.07;;;;;;;;;;2100652;28;20451;-64
2023/01/23 05:46:39;;;;;;;7.25;4.10;;;;;;;;;;2108345;28;20374;-64
2023/01/23 05:47:39;;;;;;;5.03;4.00;;;;;;;;;;2108206;28;20036;-65
2023/01/23 05:48:40;;;;;;;7.15;4.30;;;;;;;;;;2108133;28;20352;-65
2023/01/23 05:49:40;;;;;;;5.05;3.30;;;;;;;;;;2102531;28;20032;-65
2023/01/23 05:50:40;;;;;;;4.93;3.63;;;;;;;;;;2099758;28;20044;-65
2023/01/23 05:51:40;;;;;;;4.82;3.90;;;;;;;;;;2100062;28;20033;-65
2023/01/23 05:52:40;;;;;;;5.38;3.80;;;;;;;;;;2099794;28;20362;-65
2023/01/23 05:53:40;;;;;;;5.13;3.80;;;;;;;;;;2099414;28;20032;-65
2023/01/23 05:54:41;;;;;;;6.20;3.97;;;;;;;;;;2099272;28;20083;-64
2023/01/23 05:55:41;;;;;;;7.55;4.15;;;;;;;;;;2099663;28;20062;-65
2023/01/23 05:56:41;;;;;;;4.55;3.67;;;;;;;;;;2099293;28;20161;-65
2023/01/23 05:57:41;;;;;;;8.55;4.35;;;;;;;;;;2099913;28;20104;-65
2023/01/23 05:58:41;;;;;;;7.93;3.88;;;;;;;;;;2099225;28;20424;-64
2023/01/23 05:59:41;;;;;;;5.80;3.97;;;;;;;;;;2103520;28;20455;-65
2023/01/23 06:00:42;;;;;;;9.30;4.32;;;;;;;;;;2108193;28;20174;-65
2023/01/23 06:01:42;;;;;;;9.13;4.00;;;;;;;;;;2108252;28;20024;-63
2023/01/23 06:02:42;;;;;;;8.35;3.55;;;;;;;;;;2108221;28;20077;-65
2023/01/23 06:03:42;;;;;;;6.88;3.85;;;;;;;;;;2101853;28;20020;-65
2023/01/23 06:04:42;;;;;;;4.75;3.67;;;;;;;;;;2107141;28;20066;-65
2023/01/23 06:05:42;;;;;;;5.90;3.88;;;;;;;;;;2099785;28;20036;-65
2023/01/23 06:06:43;;;;;;;4.38;3.63;;;;;;;;;;2100826;28;20013;-65
2023/01/23 06:07:43;;;;;;;7.80;4.03;;;;;;;;;;2108110;28;20521;-65
2023/01/23 06:08:43;;;;;;;6.38;4.00;;;;;;;;;;2108125;28;20055;-65
2023/01/23 06:09:43;;;;;;;4.90;3.78;;;;;;;;;;2108236;28;20095;-65
2023/01/23 06:10:43;;;;;;;4.78;3.75;;;;;;;;;;2101976;28;20450;-65
2023/01/23 06:11:43;;;;;;;5.28;4.15;;;;;;;;;;2099792;28;20082;-65
2023/01/23 06:12:44;;;;;;;5.38;4.25;;;;;;;;;;2099218;28;20028;-65